METAR Analyzer

一覧表示

Hello, Guest. (Login)

RJCC/CTS  -  札幌/新千歳

観測日時
2021-01-27 15:30 (UTC) (59分前)
気温
-3
露点
-10
湿数
7
相対湿度
58.4%
QNH
1015hPa
推定現地気圧
1012.0hPa
推定海面気圧
1015.2hPa
体感温度
-17
(無風時)
3.1
HI
-5.7
気温前日比
-5
体感温度前日比
-2.4
HI前日比
-6.1
水平視程
>10000m
鉛直視程
データなし
雲底高度
5000ft AGL
V/I
VMC (VFR)
RVR
No RVR data
卓越風
12kt from 310°
ガスト
No gust
降水
報告なし
その他の天気
報告なし
少しの雲 @ 3000ft AGL / 隙間のある雲 @ 5000ft AGL

RJCC 271530Z 31012KT 9999 FEW030 BKN050 M03/M10 Q1015

RJTT/HND  -  東京/羽田

観測日時
2021-01-27 15:30 (UTC) (59分前)
気温
9
露点
0
湿数
9
相対湿度
53.2%
QNH
1016hPa
推定現地気圧
1015.3hPa
推定海面気圧
1016.0hPa
体感温度
-0.7
(無風時)
11.9
HI
7.3
気温前日比
-1
体感温度前日比
-3.8
HI前日比
-1.7
水平視程
>10000m
鉛直視程
データなし
雲底高度
5000ft AGL
V/I
VMC (VFR)
RVR
No RVR data
卓越風
9kt from 50°
ガスト
No gust
降水
報告なし
その他の天気
報告なし
少しの雲 @ 3000ft AGL / 隙間のある雲 @ 5000ft AGL / 隙間のある雲 @ 不明な高さ

RJTT 271530Z 05009KT 9999 FEW030 BKN050 BKN/// 09/M00 Q1016 NOSIG

RJAA/NRT  -  東京/成田

観測日時
2021-01-27 15:30 (UTC) (59分前)
気温
5
露点
-1
湿数
6
相対湿度
65.1%
QNH
1016hPa
推定現地気圧
1014.7hPa
推定海面気圧
1016.1hPa
体感温度
-6.7
(無風時)
8.8
HI
3.3
気温前日比
-3
体感温度前日比
-9.7
HI前日比
-4.2
水平視程
>10000m
鉛直視程
データなし
雲底高度
No dense clouds
V/I
VMC (VFR)
RVR
No RVR data
卓越風
10kt from 360°
ガスト
No gust
降水
報告なし
その他の天気
報告なし
少しの雲 @ 3000ft AGL

RJAA 271530Z 36010KT 9999 FEW030 05/M01 Q1016 NOSIG

株式会社マネーパートナーズ 【Manepa Card】

RJGG/NGO  -  名古屋/中部

観測日時
2021-01-27 15:30 (UTC) (59分前)
気温
8
露点
2
湿数
6
相対湿度
65.8%
QNH
1014hPa
推定現地気圧
1013.5hPa
推定海面気圧
1014.0hPa
体感温度
-2.5
(無風時)
11.1
HI
6.6
気温前日比
-4
体感温度前日比
-5.4
HI前日比
-4.9
水平視程
>10000m
鉛直視程
データなし
雲底高度
4000ft AGL
V/I
VMC (VFR)
RVR
No RVR data
卓越風
9kt from 340°
ガスト
No gust
降水
報告なし
その他の天気
報告なし
少しの雲 @ 3000ft AGL / 隙間のある雲 @ 4000ft AGL

RJGG 271530Z 34009KT 9999 FEW030 BKN040 08/02 Q1014 NOSIG

RJBB/KIX  -  大阪/関西

観測日時
2021-01-27 15:30 (UTC) (59分前)
気温
9
露点
2
湿数
7
相対湿度
61.5%
QNH
1016hPa
推定現地気圧
1015.4hPa
推定海面気圧
1016.0hPa
体感温度
-3.2
(無風時)
11.9
HI
7.6
気温前日比
-2
体感温度前日比
-3
HI前日比
-3.2
水平視程
>10000m
鉛直視程
データなし
雲底高度
No dense clouds
V/I
VMC (VFR)
RVR
No RVR data
卓越風
15kt from 40°
ガスト
No gust
降水
報告なし
その他の天気
報告なし
少しの雲 @ 3800ft AGL / 散在する雲 @ 24000ft AGL

RJBB 271530Z AUTO 04015KT 9999 FEW038 SCT240 09/02 Q1016 NOSIG

RJFF/FUK  -  福岡

観測日時
2021-01-27 15:30 (UTC) (59分前)
気温
6
露点
2
湿数
4
相対湿度
75.5%
QNH
1017hPa
推定現地気圧
1015.9hPa
推定海面気圧
1017.0hPa
体感温度
1.7
(無風時)
9.4
HI
4.6
気温前日比
-5
体感温度前日比
+1
HI前日比
-6
水平視程
>10000m
鉛直視程
データなし
雲底高度
データなし
V/I
判定不可
RVR
No RVR data
卓越風
2kt from 140°
ガスト
No gust
降水
報告なし
その他の天気
NSC
報告なし

RJFF 271530Z AUTO 14002KT 9999 NSC 06/02 Q1017 NOSIG

ROAH/OKA  -  那覇

観測日時
2021-01-27 15:30 (UTC) (59分前)
気温
18
露点
11
湿数
7
相対湿度
63.6%
QNH
1016hPa
推定現地気圧
1015.6hPa
推定海面気圧
1016.0hPa
体感温度
9
(無風時)
18.7
HI
17.5
気温前日比
-1
体感温度前日比
-0.9
HI前日比
-1.4
水平視程
>10000m
鉛直視程
データなし
雲底高度
4500ft AGL
V/I
VMC (VFR)
RVR
No RVR data
卓越風
12kt from 320° (280° ~ 350°)
ガスト
No gust
降水
報告なし
その他の天気
報告なし
少しの雲 @ 2500ft AGL / 隙間のある雲 @ 4500ft AGL

ROAH 271530Z 32012KT 280V350 9999 FEW025 BKN045 18/11 Q1016

株式会社マネーパートナーズ 【Manepa Card】
23.3msec